Time;durP1;ratioP1;P1;durP2;ratioP2;P2;SDS_P1;SDS_P2;PMS_P1;PMS_P2;Temp;Humidity;BMP_temperature;BMP_pressure;BME280_temperature;BME280_humidity;BME280_pressure;Samples;Min_cycle;Max_cycle;Signal;HPM_P1;HPM_P2
2021/12/27 00:00:11;;;;;;;54.60;24.40;;;;;;;;;;5002027;28;20096;-74
2021/12/27 00:02:38;;;;;;;74.00;29.60;;;;;;;;;;4991368;28;20046;-74
2021/12/27 00:05:04;;;;;;;126.38;35.33;;;;;;;;;;4989867;28;20088;-74
2021/12/27 00:07:30;;;;;;;93.47;34.55;;;;;;;;;;4973831;28;20039;-75
2021/12/27 00:09:55;;;;;;;99.20;34.08;;;;;;;;;;5000049;28;20088;-74
2021/12/27 00:12:21;;;;;;;77.00;31.50;;;;;;;;;;5011287;28;20092;-74
2021/12/27 00:14:46;;;;;;;86.18;31.52;;;;;;;;;;5010773;28;20037;-75
2021/12/27 00:17:12;;;;;;;61.75;27.08;;;;;;;;;;4993205;28;20050;-74
2021/12/27 00:19:37;;;;;;;76.55;31.85;;;;;;;;;;4993867;28;20080;-75
2021/12/27 00:22:03;;;;;;;78.18;30.83;;;;;;;;;;4992824;28;20045;-75
2021/12/27 00:24:29;;;;;;;67.43;27.38;;;;;;;;;;5010509;28;20121;-75
2021/12/27 00:26:54;;;;;;;94.13;33.15;;;;;;;;;;4976726;28;20200;-75
2021/12/27 00:29:20;;;;;;;79.70;29.42;;;;;;;;;;4992948;28;20038;-75
2021/12/27 00:31:46;;;;;;;60.58;26.73;;;;;;;;;;4986539;28;20038;-75
2021/12/27 00:34:11;;;;;;;55.40;26.08;;;;;;;;;;5010233;28;20034;-74
2021/12/27 00:36:37;;;;;;;60.58;25.52;;;;;;;;;;4992830;28;20187;-75
2021/12/27 00:39:03;;;;;;;59.40;27.33;;;;;;;;;;4992701;28;20132;-74
2021/12/27 00:41:29;;;;;;;71.85;30.92;;;;;;;;;;5006022;28;20383;-74
2021/12/27 00:43:54;;;;;;;80.55;31.65;;;;;;;;;;4974705;28;20046;-74
2021/12/27 00:46:19;;;;;;;68.15;28.35;;;;;;;;;;4988511;28;20045;-74
2021/12/27 00:48:45;;;;;;;70.75;29.83;;;;;;;;;;4988576;28;20113;-74
2021/12/27 00:51:10;;;;;;;65.22;29.13;;;;;;;;;;4972726;28;20454;-75
2021/12/27 00:53:36;;;;;;;56.13;26.50;;;;;;;;;;4972506;28;20030;-74
2021/12/27 00:56:02;;;;;;;64.38;27.17;;;;;;;;;;4991612;28;20029;-75
2021/12/27 00:58:27;;;;;;;66.15;28.50;;;;;;;;;;5010270;28;20045;-74
2021/12/27 01:00:52;;;;;;;65.35;27.77;;;;;;;;;;4972846;28;20125;-74
2021/12/27 01:03:20;;;;;;;72.95;29.17;;;;;;;;;;4988085;28;20038;-75
2021/12/27 01:05:46;;;;;;;60.00;27.70;;;;;;;;;;4989419;28;20030;-75
2021/12/27 01:08:11;;;;;;;66.85;27.98;;;;;;;;;;5010126;28;20138;-74
2021/12/27 01:16:10;;;;;;;65.30;27.75;;;;;;;;;;4983315;28;20034;-75
2021/12/27 01:18:56;;;;;;;65.07;28.25;;;;;;;;;;5009924;28;20498;-74
2021/12/27 01:21:24;;;;;;;69.95;28.85;;;;;;;;;;4992526;28;20121;-74
2021/12/27 01:23:51;;;;;;;62.80;29.10;;;;;;;;;;4992224;28;20038;-74
2021/12/27 01:26:17;;;;;;;76.53;30.58;;;;;;;;;;4986062;28;20044;-74
2021/12/27 01:28:43;;;;;;;73.38;30.25;;;;;;;;;;5010076;28;20393;-75
2021/12/27 01:31:09;;;;;;;71.28;28.48;;;;;;;;;;5004461;28;20030;-74
2021/12/27 01:33:35;;;;;;;65.28;27.42;;;;;;;;;;4993743;28;20121;-74
2021/12/27 01:36:02;;;;;;;72.03;28.38;;;;;;;;;;4976485;28;20125;-75
2021/12/27 01:38:27;;;;;;;77.85;27.17;;;;;;;;;;4975200;28;20046;-74
2021/12/27 01:40:55;;;;;;;134.73;28.42;;;;;;;;;;4992113;28;20038;-74
2021/12/27 01:43:27;;;;;;;76.35;28.05;;;;;;;;;;4993414;28;20126;-74
2021/12/27 01:45:56;;;;;;;146.90;29.15;;;;;;;;;;4976151;28;20027;-75
2021/12/27 01:48:25;;;;;;;165.38;30.40;;;;;;;;;;4996636;28;20649;-74
2021/12/27 01:50:54;;;;;;;193.25;29.30;;;;;;;;;;5012632;28;20379;-74
2021/12/27 01:53:22;;;;;;;119.95;32.58;;;;;;;;;;4995206;28;20049;-74
2021/12/27 01:55:48;;;;;;;164.13;35.42;;;;;;;;;;4995478;28;20048;-74
2021/12/27 01:58:14;;;;;;;161.02;33.95;;;;;;;;;;5010846;28;20038;-74
2021/12/27 02:00:44;;;;;;;289.73;36.28;;;;;;;;;;4986339;28;20030;-74
2021/12/27 02:03:10;;;;;;;224.15;36.00;;;;;;;;;;4956000;28;20047;-75
2021/12/27 02:05:36;;;;;;;117.95;33.08;;;;;;;;;;4940370;28;20045;-74
2021/12/27 02:08:03;;;;;;;154.95;31.77;;;;;;;;;;4973806;28;20042;-74
2021/12/27 02:10:29;;;;;;;251.63;33.63;;;;;;;;;;4972664;28;20037;-74
2021/12/27 02:12:54;;;;;;;149.05;29.92;;;;;;;;;;4994681;28;20095;-74
2021/12/27 02:15:20;;;;;;;139.07;29.98;;;;;;;;;;4992701;28;20535;-74
2021/12/27 02:17:45;;;;;;;172.70;32.58;;;;;;;;;;4992962;28;20034;-75
2021/12/27 02:20:19;;;;;;;128.27;29.85;;;;;;;;;;4991799;28;20677;-74
2021/12/27 02:22:45;;;;;;;138.00;30.90;;;;;;;;;;4991562;28;20518;-74
2021/12/27 02:25:12;;;;;;;105.47;32.85;;;;;;;;;;4994677;28;20112;-74
2021/12/27 02:27:38;;;;;;;114.38;31.77;;;;;;;;;;4978759;28;20258;-74
2021/12/27 02:30:06;;;;;;;143.10;32.50;;;;;;;;;;5012127;28;20041;-74
2021/12/27 02:32:31;;;;;;;123.45;31.40;;;;;;;;;;4977830;28;20128;-74
2021/12/27 02:34:57;;;;;;;77.68;28.85;;;;;;;;;;4976426;28;20125;-75
2021/12/27 02:37:23;;;;;;;71.30;28.45;;;;;;;;;;4994456;28;20053;-75
2021/12/27 02:39:48;;;;;;;81.35;27.38;;;;;;;;;;5012048;28;20034;-75
2021/12/27 02:42:18;;;;;;;69.40;25.45;;;;;;;;;;5009918;28;20355;-75
2021/12/27 02:44:44;;;;;;;63.47;25.08;;;;;;;;;;4991035;28;20387;-75
2021/12/27 02:47:09;;;;;;;88.53;26.50;;;;;;;;;;4974650;28;20479;-75
2021/12/27 02:49:35;;;;;;;83.43;26.75;;;;;;;;;;4992222;28;20096;-75
2021/12/27 02:52:00;;;;;;;57.15;25.77;;;;;;;;;;4974814;28;20595;-75
2021/12/27 02:54:26;;;;;;;63.15;25.13;;;;;;;;;;4961799;28;20045;-75
2021/12/27 02:56:52;;;;;;;48.97;24.20;;;;;;;;;;4988793;28;20406;-75
2021/12/27 02:59:17;;;;;;;50.10;25.13;;;;;;;;;;4983761;28;20040;-75
2021/12/27 03:01:43;;;;;;;44.88;21.80;;;;;;;;;;4978662;28;20633;-75
2021/12/27 03:04:08;;;;;;;49.08;22.10;;;;;;;;;;4965045;28;20037;-75
2021/12/27 03:06:34;;;;;;;60.10;24.23;;;;;;;;;;4995808;28;20042;-75
2021/12/27 03:08:59;;;;;;;50.28;23.85;;;;;;;;;;4983865;28;20040;-75
2021/12/27 03:11:25;;;;;;;48.35;22.38;;;;;;;;;;5011268;28;20030;-75
2021/12/27 03:13:51;;;;;;;56.17;22.48;;;;;;;;;;5011242;28;20449;-75
2021/12/27 03:16:18;;;;;;;45.28;22.95;;;;;;;;;;4983914;28;20077;-76
2021/12/27 03:18:48;;;;;;;48.03;23.88;;;;;;;;;;4969373;28;20045;-77
2021/12/27 03:21:14;;;;;;;39.72;20.88;;;;;;;;;;5011029;28;20034;-76
2021/12/27 03:23:40;;;;;;;41.53;21.85;;;;;;;;;;5011223;28;20520;-75
2021/12/27 03:26:06;;;;;;;50.17;24.17;;;;;;;;;;5011245;28;20026;-75
2021/12/27 03:28:33;;;;;;;50.65;23.75;;;;;;;;;;4977601;28;20505;-76
2021/12/27 03:30:59;;;;;;;68.13;27.85;;;;;;;;;;4999384;28;20062;-76
2021/12/27 03:33:24;;;;;;;56.55;24.33;;;;;;;;;;5010718;28;20394;-76
2021/12/27 03:36:00;;;;;;;54.25;23.15;;;;;;;;;;4977293;28;20030;-75
2021/12/27 03:38:27;;;;;;;42.22;22.60;;;;;;;;;;4977337;28;20042;-76
2021/12/27 03:40:53;;;;;;;40.83;21.27;;;;;;;;;;4971133;28;20750;-76
2021/12/27 03:43:18;;;;;;;45.85;22.90;;;;;;;;;;4976898;28;20037;-76
2021/12/27 03:45:44;;;;;;;39.80;20.58;;;;;;;;;;5005303;28;20113;-75
2021/12/27 03:48:11;;;;;;;41.03;21.33;;;;;;;;;;4990122;28;20081;-76
2021/12/27 03:50:38;;;;;;;37.17;20.75;;;;;;;;;;4991182;28;20038;-76
2021/12/27 03:53:05;;;;;;;39.35;19.83;;;;;;;;;;4977414;28;20043;-76
2021/12/27 03:55:31;;;;;;;33.53;19.05;;;;;;;;;;4999216;28;20061;-76
2021/12/27 03:58:06;;;;;;;30.55;17.95;;;;;;;;;;5010824;28;20163;-76
2021/12/27 04:00:47;;;;;;;31.48;17.98;;;;;;;;;;4988939;28;20041;-76
2021/12/27 04:03:13;;;;;;;34.63;19.20;;;;;;;;;;4972235;28;20034;-76
2021/12/27 04:05:38;;;;;;;29.65;17.77;;;;;;;;;;4993412;28;20041;-76
2021/12/27 04:08:09;;;;;;;32.15;17.83;;;;;;;;;;4977485;28;20486;-76
2021/12/27 04:10:37;;;;;;;28.67;15.57;;;;;;;;;;4992956;28;20034;-76
2021/12/27 04:13:02;;;;;;;25.20;15.90;;;;;;;;;;4976594;28;20041;-76
2021/12/27 04:15:28;;;;;;;29.40;17.42;;;;;;;;;;5000587;28;20036;-75
2021/12/27 04:17:53;;;;;;;27.95;15.63;;;;;;;;;;4991018;28;20406;-76
2021/12/27 04:20:21;;;;;;;26.30;15.95;;;;;;;;;;4976732;28;20038;-76
2021/12/27 04:22:46;;;;;;;25.70;15.82;;;;;;;;;;5010657;28;20040;-76
2021/12/27 04:25:12;;;;;;;25.95;15.90;;;;;;;;;;4986584;28;20038;-76
2021/12/27 04:27:37;;;;;;;26.52;16.40;;;;;;;;;;4976516;28;20025;-76
2021/12/27 04:30:03;;;;;;;26.05;15.93;;;;;;;;;;4992384;28;20030;-76
2021/12/27 04:32:29;;;;;;;28.33;16.80;;;;;;;;;;4966383;28;20411;-76
2021/12/27 04:34:54;;;;;;;35.67;19.50;;;;;;;;;;4942551;28;20043;-76
2021/12/27 04:37:20;;;;;;;33.00;18.60;;;;;;;;;;4981433;28;20043;-76
2021/12/27 04:39:45;;;;;;;41.80;21.20;;;;;;;;;;4989813;28;20026;-75
2021/12/27 04:42:11;;;;;;;38.20;20.17;;;;;;;;;;4977244;28;20398;-77
2021/12/27 04:44:36;;;;;;;30.20;17.20;;;;;;;;;;4979033;28;20696;-75
2021/12/27 04:47:03;;;;;;;25.80;15.00;;;;;;;;;;4981099;28;20061;-75
2021/12/27 04:49:29;;;;;;;29.33;16.02;;;;;;;;;;4976210;28;20030;-76
2021/12/27 04:51:55;;;;;;;27.90;16.30;;;;;;;;;;4992584;28;20037;-76
2021/12/27 04:54:20;;;;;;;31.85;18.90;;;;;;;;;;4992409;28;20044;-75
2021/12/27 04:56:47;;;;;;;33.72;17.52;;;;;;;;;;4992808;28;20041;-76
2021/12/27 04:59:12;;;;;;;33.25;19.27;;;;;;;;;;4986539;28;20084;-76
2021/12/27 05:01:38;;;;;;;35.03;18.80;;;;;;;;;;4997103;28;20038;-76
2021/12/27 05:04:04;;;;;;;33.40;18.10;;;;;;;;;;4989904;28;20049;-76
2021/12/27 05:06:29;;;;;;;34.40;19.65;;;;;;;;;;4994324;28;20045;-76
2021/12/27 05:08:55;;;;;;;33.50;17.73;;;;;;;;;;4992175;28;20108;-76
2021/12/27 05:11:21;;;;;;;32.65;18.20;;;;;;;;;;5007093;28;20032;-75
2021/12/27 05:13:46;;;;;;;27.67;16.55;;;;;;;;;;5013457;28;20046;-75
2021/12/27 05:16:12;;;;;;;32.88;16.98;;;;;;;;;;4986681;28;20034;-75
2021/12/27 05:18:37;;;;;;;31.50;18.17;;;;;;;;;;4993998;28;20693;-75
2021/12/27 05:21:03;;;;;;;27.67;15.55;;;;;;;;;;4981744;28;20060;-75
2021/12/27 05:23:30;;;;;;;27.25;16.23;;;;;;;;;;4995794;28;20140;-75
2021/12/27 05:25:55;;;;;;;27.02;15.75;;;;;;;;;;5013528;28;20585;-75
2021/12/27 05:28:21;;;;;;;24.65;15.30;;;;;;;;;;5013702;28;20069;-75
2021/12/27 05:30:48;;;;;;;27.10;15.13;;;;;;;;;;5006592;28;20113;-75
2021/12/27 05:33:15;;;;;;;28.70;15.65;;;;;;;;;;5013564;28;20080;-76
2021/12/27 05:35:42;;;;;;;27.70;16.65;;;;;;;;;;4995793;28;20050;-76
2021/12/27 05:38:08;;;;;;;26.55;15.45;;;;;;;;;;4995730;28;20049;-76
2021/12/27 05:40:33;;;;;;;28.52;15.85;;;;;;;;;;4995419;28;20060;-76
2021/12/27 05:42:59;;;;;;;24.67;14.73;;;;;;;;;;5006917;28;20066;-77
2021/12/27 05:45:25;;;;;;;27.05;15.68;;;;;;;;;;4992401;28;20057;-75
2021/12/27 05:47:50;;;;;;;26.33;15.82;;;;;;;;;;4975889;28;20046;-75
2021/12/27 05:50:17;;;;;;;26.30;15.30;;;;;;;;;;4993429;28;20039;-76
2021/12/27 05:52:42;;;;;;;27.08;16.77;;;;;;;;;;4992469;28;20120;-75
2021/12/27 05:55:09;;;;;;;27.45;16.42;;;;;;;;;;4970706;28;20129;-70
2021/12/27 05:57:36;;;;;;;25.27;16.35;;;;;;;;;;4995134;28;20077;-76
2021/12/27 06:00:04;;;;;;;28.30;16.63;;;;;;;;;;4995356;28;20042;-75
2021/12/27 06:02:39;;;;;;;33.78;18.73;;;;;;;;;;4973820;28;20077;-74
2021/12/27 06:05:05;;;;;;;40.17;20.75;;;;;;;;;;4999882;28;20053;-76
2021/12/27 06:07:30;;;;;;;40.15;21.55;;;;;;;;;;5012824;28;20528;-76
2021/12/27 06:09:57;;;;;;;45.33;20.67;;;;;;;;;;4995069;28;20096;-76
2021/12/27 06:12:23;;;;;;;42.30;22.25;;;;;;;;;;4975780;28;20987;-76
2021/12/27 06:14:49;;;;;;;47.60;22.95;;;;;;;;;;4975027;28;20130;-74
2021/12/27 06:17:14;;;;;;;41.65;21.25;;;;;;;;;;5006758;28;20109;-73
2021/12/27 06:19:39;;;;;;;45.58;21.40;;;;;;;;;;5011428;28;20029;-74
2021/12/27 06:22:05;;;;;;;44.20;22.05;;;;;;;;;;4985400;28;20109;-73
2021/12/27 06:24:31;;;;;;;38.22;21.60;;;;;;;;;;4976809;28;20039;-74
2021/12/27 06:26:56;;;;;;;45.30;23.35;;;;;;;;;;4988340;28;20026;-74
2021/12/27 06:29:21;;;;;;;50.40;23.50;;;;;;;;;;4979088;28;20625;-75
2021/12/27 06:31:47;;;;;;;43.03;21.77;;;;;;;;;;4971253;28;20526;-75
2021/12/27 06:34:14;;;;;;;39.45;20.50;;;;;;;;;;4987761;28;20046;-75
2021/12/27 06:36:39;;;;;;;46.47;22.30;;;;;;;;;;4955405;28;20065;-75
2021/12/27 06:39:05;;;;;;;41.08;21.00;;;;;;;;;;5010489;28;20030;-75
2021/12/27 06:41:32;;;;;;;40.53;20.20;;;;;;;;;;4992547;28;20578;-75
2021/12/27 06:43:57;;;;;;;37.67;20.25;;;;;;;;;;5010451;28;20038;-75
2021/12/27 06:46:23;;;;;;;46.90;21.13;;;;;;;;;;4975743;28;20038;-75
2021/12/27 06:48:49;;;;;;;40.92;22.38;;;;;;;;;;4993094;28;20195;-75
2021/12/27 06:51:14;;;;;;;49.95;25.27;;;;;;;;;;5010553;28;20069;-75
2021/12/27 06:53:40;;;;;;;48.00;21.98;;;;;;;;;;4992326;28;20030;-75
2021/12/27 06:56:06;;;;;;;43.78;22.27;;;;;;;;;;5010699;28;20444;-75
2021/12/27 06:58:32;;;;;;;37.20;19.95;;;;;;;;;;4985140;28;20486;-74
2021/12/27 07:00:58;;;;;;;46.00;23.20;;;;;;;;;;4973777;28;20050;-74
2021/12/27 07:03:23;;;;;;;47.42;23.33;;;;;;;;;;4968133;28;20046;-75
2021/12/27 07:05:49;;;;;;;45.95;21.52;;;;;;;;;;4972637;28;20034;-72
2021/12/27 07:08:16;;;;;;;37.95;21.65;;;;;;;;;;4972702;28;20399;-73
2021/12/27 07:10:42;;;;;;;52.90;24.67;;;;;;;;;;4983086;28;20042;-72
2021/12/27 07:13:09;;;;;;;40.55;19.10;;;;;;;;;;4974199;28;20034;-73
2021/12/27 07:15:41;;;;;;;41.35;19.92;;;;;;;;;;4975007;28;20034;-73
2021/12/27 07:18:16;;;;;;;40.38;20.38;;;;;;;;;;4991874;28;20038;-73
2021/12/27 07:20:41;;;;;;;27.63;15.60;;;;;;;;;;4990758;28;20085;-73
2021/12/27 07:23:08;;;;;;;26.60;15.80;;;;;;;;;;4961238;28;20030;-73
2021/12/27 07:25:34;;;;;;;30.83;16.65;;;;;;;;;;4993464;28;20045;-73
2021/12/27 07:28:00;;;;;;;38.25;20.33;;;;;;;;;;5010530;28;20034;-73
2021/12/27 07:30:31;;;;;;;38.72;19.42;;;;;;;;;;4973774;28;20026;-73
2021/12/27 07:32:57;;;;;;;34.40;19.05;;;;;;;;;;4974858;28;20034;-72
2021/12/27 07:35:23;;;;;;;40.65;22.35;;;;;;;;;;4993177;28;20505;-73
2021/12/27 07:37:49;;;;;;;37.42;20.20;;;;;;;;;;5011037;28;20144;-75
2021/12/27 07:40:15;;;;;;;38.58;19.55;;;;;;;;;;4977239;28;20486;-75
2021/12/27 07:42:40;;;;;;;29.63;17.42;;;;;;;;;;5005582;28;20085;-75
2021/12/27 07:45:07;;;;;;;36.13;19.00;;;;;;;;;;4976473;28;20364;-76
2021/12/27 07:47:32;;;;;;;36.60;20.20;;;;;;;;;;4974154;28;20053;-74
2021/12/27 07:49:58;;;;;;;31.80;18.15;;;;;;;;;;4973759;28;20034;-74
2021/12/27 07:52:24;;;;;;;31.13;15.98;;;;;;;;;;4991262;28;20042;-74
2021/12/27 07:54:49;;;;;;;33.20;19.05;;;;;;;;;;4990659;28;20110;-73
2021/12/27 07:57:15;;;;;;;25.60;14.90;;;;;;;;;;5010679;28;20133;-74
2021/12/27 07:59:42;;;;;;;35.80;18.80;;;;;;;;;;5010878;28;20038;-74
2021/12/27 08:02:10;;;;;;;31.08;16.05;;;;;;;;;;4976361;28;20034;-74
2021/12/27 08:04:36;;;;;;;29.30;16.67;;;;;;;;;;4990150;28;20034;-74
2021/12/27 08:07:02;;;;;;;37.92;18.50;;;;;;;;;;5009697;28;20041;-73
2021/12/27 08:09:27;;;;;;;36.65;18.88;;;;;;;;;;4993028;28;20524;-73
2021/12/27 08:11:53;;;;;;;35.70;20.60;;;;;;;;;;5010439;28;20474;-74
2021/12/27 08:14:18;;;;;;;21.92;14.18;;;;;;;;;;5010107;28;20088;-74
2021/12/27 08:16:44;;;;;;;18.00;12.50;;;;;;;;;;4996062;28;20418;-73
2021/12/27 08:19:09;;;;;;;19.75;13.18;;;;;;;;;;4993034;28;20417;-74
2021/12/27 08:21:37;;;;;;;21.10;13.88;;;;;;;;;;5010609;28;20382;-74
2021/12/27 08:24:04;;;;;;;19.27;12.60;;;;;;;;;;4992677;28;20037;-74
2021/12/27 08:26:29;;;;;;;18.40;11.43;;;;;;;;;;4988868;28;20076;-74
2021/12/27 08:28:56;;;;;;;18.50;12.20;;;;;;;;;;4992787;28;20088;-73
2021/12/27 08:31:22;;;;;;;17.67;10.60;;;;;;;;;;4963290;28;20478;-72
2021/12/27 08:33:47;;;;;;;18.20;11.05;;;;;;;;;;4990929;28;20442;-72
2021/12/27 08:36:13;;;;;;;17.77;11.48;;;;;;;;;;4990565;28;20088;-72
2021/12/27 08:38:38;;;;;;;17.90;11.57;;;;;;;;;;4973594;28;20121;-73
2021/12/27 08:41:04;;;;;;;19.42;11.63;;;;;;;;;;4979546;28;20029;-73
2021/12/27 08:43:30;;;;;;;18.77;10.82;;;;;;;;;;5014013;28;20045;-72
2021/12/27 08:45:57;;;;;;;16.40;10.50;;;;;;;;;;5007027;28;20045;-73
2021/12/27 08:48:23;;;;;;;20.02;10.65;;;;;;;;;;4976914;28;20035;-74
2021/12/27 08:50:48;;;;;;;14.68;10.00;;;;;;;;;;5011277;28;20038;-73
2021/12/27 08:53:14;;;;;;;14.88;9.88;;;;;;;;;;4990017;28;20041;-73
2021/12/27 08:55:40;;;;;;;16.02;10.75;;;;;;;;;;4994189;28;20564;-75
2021/12/27 08:58:06;;;;;;;15.80;10.27;;;;;;;;;;4995198;28;20034;-76
2021/12/27 09:00:32;;;;;;;14.13;10.57;;;;;;;;;;4960492;28;20060;-74
2021/12/27 09:02:57;;;;;;;16.48;10.90;;;;;;;;;;4994651;28;20046;-73
2021/12/27 09:05:24;;;;;;;17.38;11.52;;;;;;;;;;4980472;28;20507;-74
2021/12/27 09:07:49;;;;;;;18.83;12.00;;;;;;;;;;4967312;28;20089;-74
2021/12/27 09:10:15;;;;;;;18.83;11.15;;;;;;;;;;4955936;28;20047;-74
2021/12/27 09:12:41;;;;;;;15.75;10.35;;;;;;;;;;4988875;28;20038;-77
2021/12/27 09:15:08;;;;;;;15.88;10.57;;;;;;;;;;4971282;28;20134;-77
2021/12/27 09:17:33;;;;;;;17.77;10.43;;;;;;;;;;4974084;28;20559;-75
2021/12/27 09:19:58;;;;;;;18.30;10.38;;;;;;;;;;4984586;28;20118;-76
2021/12/27 09:22:24;;;;;;;15.57;10.68;;;;;;;;;;4973823;28;20034;-74
2021/12/27 09:24:50;;;;;;;14.45;9.95;;;;;;;;;;5009571;28;20042;-71
2021/12/27 09:27:16;;;;;;;16.10;10.68;;;;;;;;;;4995099;28;20491;-72
2021/12/27 09:29:43;;;;;;;20.25;11.65;;;;;;;;;;5012327;28;20059;-73
2021/12/27 09:32:12;;;;;;;17.30;9.85;;;;;;;;;;4978078;28;20109;-72
2021/12/27 09:34:39;;;;;;;16.02;9.98;;;;;;;;;;4993623;28;20090;-72
2021/12/27 09:37:05;;;;;;;18.35;11.02;;;;;;;;;;5010095;28;20029;-73
2021/12/27 09:39:31;;;;;;;14.10;9.57;;;;;;;;;;4994771;28;20116;-73
2021/12/27 09:41:57;;;;;;;14.40;9.60;;;;;;;;;;5011937;28;20109;-73
2021/12/27 09:44:22;;;;;;;12.63;9.13;;;;;;;;;;5006357;28;20042;-73
2021/12/27 09:46:48;;;;;;;12.18;8.65;;;;;;;;;;5006198;28;20465;-73
2021/12/27 09:49:15;;;;;;;12.90;9.23;;;;;;;;;;4993922;28;20132;-74
2021/12/27 09:51:43;;;;;;;13.52;9.05;;;;;;;;;;4973958;28;20046;-74
2021/12/27 09:54:09;;;;;;;16.90;9.98;;;;;;;;;;4970826;28;20042;-71
2021/12/27 09:56:34;;;;;;;15.65;9.70;;;;;;;;;;5007472;28;20034;-73
2021/12/27 09:59:01;;;;;;;14.70;10.23;;;;;;;;;;5011775;28;20087;-73
2021/12/27 10:01:27;;;;;;;15.63;10.48;;;;;;;;;;5001222;28;20034;-74
2021/12/27 10:03:58;;;;;;;14.55;10.60;;;;;;;;;;4973691;28;20038;-74
2021/12/27 10:06:25;;;;;;;15.55;10.40;;;;;;;;;;4989442;28;20399;-73
2021/12/27 10:08:53;;;;;;;14.77;9.55;;;;;;;;;;4990938;28;20037;-75
2021/12/27 10:11:19;;;;;;;16.98;10.35;;;;;;;;;;5011391;28;20483;-74
2021/12/27 10:14:10;;;;;;;14.77;9.88;;;;;;;;;;5010223;28;20053;-72
2021/12/27 10:16:49;;;;;;;15.38;10.50;;;;;;;;;;4974817;28;20054;-74
2021/12/27 10:19:18;;;;;;;14.82;9.77;;;;;;;;;;4983902;28;20034;-72
2021/12/27 10:21:45;;;;;;;16.35;9.65;;;;;;;;;;4991503;28;20495;-73
2021/12/27 10:24:15;;;;;;;16.00;9.48;;;;;;;;;;4975170;28;20038;-73
2021/12/27 10:26:43;;;;;;;15.77;9.57;;;;;;;;;;4960439;28;20046;-72
2021/12/27 10:29:13;;;;;;;16.88;10.50;;;;;;;;;;4976084;28;20045;-72
2021/12/27 10:32:03;;;;;;;15.43;8.85;;;;;;;;;;4973643;28;20104;-74
2021/12/27 10:34:33;;;;;;;14.95;8.93;;;;;;;;;;4960483;28;20487;-72
2021/12/27 10:36:59;;;;;;;12.63;9.20;;;;;;;;;;4977330;28;20055;-72
2021/12/27 10:39:43;;;;;;;12.85;9.30;;;;;;;;;;4998293;28;20042;-72
2021/12/27 10:42:10;;;;;;;13.45;8.98;;;;;;;;;;4982278;28;20041;-73
2021/12/27 10:44:37;;;;;;;15.18;10.02;;;;;;;;;;4995920;28;20022;-72
2021/12/27 10:47:23;;;;;;;12.57;8.82;;;;;;;;;;4997142;28;20034;-75
2021/12/27 10:49:50;;;;;;;14.85;9.48;;;;;;;;;;4979056;28;20033;-73
2021/12/27 10:52:15;;;;;;;12.77;8.75;;;;;;;;;;5011671;28;20397;-73
2021/12/27 10:54:41;;;;;;;10.98;7.82;;;;;;;;;;5011660;28;20132;-73
2021/12/27 10:57:06;;;;;;;16.08;9.32;;;;;;;;;;5011909;28;20042;-75
2021/12/27 10:59:32;;;;;;;12.30;8.73;;;;;;;;;;5011889;28;20397;-75
2021/12/27 11:02:10;;;;;;;11.95;9.05;;;;;;;;;;4984928;28;20060;-75
2021/12/27 11:04:37;;;;;;;16.02;9.40;;;;;;;;;;4963103;28;20081;-75
2021/12/27 11:07:06;;;;;;;10.73;8.25;;;;;;;;;;4992038;28;20065;-74
2021/12/27 11:09:35;;;;;;;10.55;8.15;;;;;;;;;;4992212;28;20410;-74
2021/12/27 11:12:02;;;;;;;11.27;8.05;;;;;;;;;;4993243;28;20133;-74
2021/12/27 11:14:27;;;;;;;9.50;8.05;;;;;;;;;;5004957;28;20034;-74
2021/12/27 11:16:54;;;;;;;12.75;8.57;;;;;;;;;;4973962;28;20562;-76
2021/12/27 11:19:21;;;;;;;10.80;8.57;;;;;;;;;;4974653;28;20399;-73
2021/12/27 11:21:50;;;;;;;11.32;7.97;;;;;;;;;;4991345;28;20133;-73
2021/12/27 11:24:16;;;;;;;14.80;7.97;;;;;;;;;;5002712;28;20042;-74
2021/12/27 11:26:43;;;;;;;10.63;8.43;;;;;;;;;;5010901;28;20029;-74
2021/12/27 11:29:19;;;;;;;11.13;7.55;;;;;;;;;;4993719;28;20034;-74
2021/12/27 11:31:48;;;;;;;11.10;7.15;;;;;;;;;;5003447;28;20038;-74
2021/12/27 11:34:16;;;;;;;10.70;7.32;;;;;;;;;;4976703;28;20042;-75
2021/12/27 11:36:47;;;;;;;8.20;6.80;;;;;;;;;;4981671;28;20092;-75
2021/12/27 11:39:16;;;;;;;9.38;7.07;;;;;;;;;;4991558;28;20034;-75
2021/12/27 11:41:42;;;;;;;10.02;7.28;;;;;;;;;;4991459;28;20037;-75
2021/12/27 11:44:09;;;;;;;9.50;7.25;;;;;;;;;;4990906;28;20066;-75
2021/12/27 11:46:47;;;;;;;9.85;7.25;;;;;;;;;;4985538;28;20038;-75
2021/12/27 11:49:13;;;;;;;9.48;7.47;;;;;;;;;;4972177;28;20038;-75
2021/12/27 11:51:40;;;;;;;9.55;6.97;;;;;;;;;;4971926;28;20399;-75
2021/12/27 11:54:27;;;;;;;10.30;6.97;;;;;;;;;;4971938;28;20617;-75
2021/12/27 11:56:53;;;;;;;9.25;7.68;;;;;;;;;;4985907;28;20487;-75
2021/12/27 11:59:25;;;;;;;9.57;7.07;;;;;;;;;;4978509;28;20038;-75
2021/12/27 12:01:59;;;;;;;12.50;9.60;;;;;;;;;;4986399;28;20030;-75
2021/12/27 12:04:45;;;;;;;12.30;9.65;;;;;;;;;;4968771;28;20031;-73
2021/12/27 12:07:32;;;;;;;17.70;10.35;;;;;;;;;;4981310;28;20042;-72
2021/12/27 12:09:58;;;;;;;16.48;10.95;;;;;;;;;;4958288;28;20117;-72
2021/12/27 12:12:23;;;;;;;14.23;10.35;;;;;;;;;;4970414;28;20042;-73
2021/12/27 12:14:57;;;;;;;16.83;10.25;;;;;;;;;;4988316;28;20419;-72
2021/12/27 12:17:44;;;;;;;15.07;10.98;;;;;;;;;;4985708;28;20045;-72
2021/12/27 12:20:34;;;;;;;14.45;10.45;;;;;;;;;;4996387;28;20042;-73
2021/12/27 12:23:08;;;;;;;16.33;11.30;;;;;;;;;;5008944;28;20498;-73
2021/12/27 12:25:36;;;;;;;19.00;12.75;;;;;;;;;;5008997;28;20044;-73
2021/12/27 12:28:07;;;;;;;12.68;9.65;;;;;;;;;;5009236;28;20034;-73
2021/12/27 12:30:35;;;;;;;11.50;8.52;;;;;;;;;;4999598;28;20133;-73
2021/12/27 12:33:08;;;;;;;13.02;8.27;;;;;;;;;;5007748;28;20061;-73
2021/12/27 12:35:45;;;;;;;9.88;7.38;;;;;;;;;;5008797;28;20033;-73
2021/12/27 12:38:25;;;;;;;10.40;7.57;;;;;;;;;;5009335;28;20038;-72
2021/12/27 12:41:03;;;;;;;11.43;8.07;;;;;;;;;;4984641;28;20034;-72
2021/12/27 12:43:54;;;;;;;10.43;8.48;;;;;;;;;;5009364;28;20049;-73
2021/12/27 12:46:27;;;;;;;10.57;7.97;;;;;;;;;;4998629;28;20049;-74
2021/12/27 12:49:03;;;;;;;12.75;9.02;;;;;;;;;;4988459;28;20042;-73
2021/12/27 12:51:41;;;;;;;11.90;8.32;;;;;;;;;;4994226;28;20488;-73
2021/12/27 12:54:16;;;;;;;10.88;8.68;;;;;;;;;;5008763;28;20145;-73
2021/12/27 12:56:41;;;;;;;13.05;9.50;;;;;;;;;;4990972;28;20496;-73
2021/12/27 12:59:28;;;;;;;12.48;9.20;;;;;;;;;;4991320;28;20037;-73
2021/12/27 13:02:04;;;;;;;12.93;8.75;;;;;;;;;;4976016;28;20049;-73
2021/12/27 13:04:56;;;;;;;12.13;7.95;;;;;;;;;;4991283;28;20394;-73
2021/12/27 13:07:48;;;;;;;12.40;8.90;;;;;;;;;;4991027;28;20089;-73
2021/12/27 13:10:20;;;;;;;10.32;7.85;;;;;;;;;;5008999;28;20030;-73
2021/12/27 13:12:46;;;;;;;10.95;8.10;;;;;;;;;;5002176;28;20054;-72
2021/12/27 13:15:22;;;;;;;11.32;7.68;;;;;;;;;;4996162;28;20044;-73
2021/12/27 13:18:17;;;;;;;12.00;7.90;;;;;;;;;;4990043;28;20041;-74
2021/12/27 13:20:50;;;;;;;12.20;8.30;;;;;;;;;;4990303;28;20057;-72
2021/12/27 13:23:21;;;;;;;10.07;7.72;;;;;;;;;;4989228;28;20042;-72
2021/12/27 13:25:54;;;;;;;10.93;7.65;;;;;;;;;;5008480;28;20061;-72
2021/12/27 13:28:21;;;;;;;13.90;8.90;;;;;;;;;;5012581;28;20075;-73
2021/12/27 13:30:46;;;;;;;14.43;9.93;;;;;;;;;;5007481;28;20509;-72
2021/12/27 13:33:12;;;;;;;13.25;9.57;;;;;;;;;;4994124;28;20522;-73
2021/12/27 13:35:40;;;;;;;12.95;10.20;;;;;;;;;;4999849;28;20041;-73
2021/12/27 13:38:33;;;;;;;17.98;10.23;;;;;;;;;;4995779;28;20088;-73
2021/12/27 13:41:10;;;;;;;16.65;10.10;;;;;;;;;;5013272;28;20052;-72
2021/12/27 13:43:51;;;;;;;16.48;10.50;;;;;;;;;;5013547;28;20037;-73
2021/12/27 13:46:23;;;;;;;16.45;11.23;;;;;;;;;;5006459;28;20042;-74
2021/12/27 13:48:49;;;;;;;21.85;12.98;;;;;;;;;;5012972;28;20040;-74
2021/12/27 13:51:21;;;;;;;24.42;15.55;;;;;;;;;;5012940;28;20034;-75
2021/12/27 13:54:04;;;;;;;25.50;16.73;;;;;;;;;;4995721;28;20066;-74
2021/12/27 13:56:32;;;;;;;29.38;17.95;;;;;;;;;;4991198;28;20104;-76
2021/12/27 13:59:16;;;;;;;33.05;18.70;;;;;;;;;;5011247;28;20121;-75
2021/12/27 14:01:53;;;;;;;29.67;18.25;;;;;;;;;;4975607;28;20138;-73
2021/12/27 14:04:21;;;;;;;30.77;19.10;;;;;;;;;;4993531;28;20058;-73
2021/12/27 14:06:47;;;;;;;39.20;20.08;;;;;;;;;;4993200;28;20038;-73
2021/12/27 14:09:20;;;;;;;28.33;16.25;;;;;;;;;;5003574;28;20037;-74
2021/12/27 14:11:51;;;;;;;34.28;20.00;;;;;;;;;;5012293;28;20078;-73
2021/12/27 14:14:44;;;;;;;36.92;20.70;;;;;;;;;;5012574;28;20414;-73
2021/12/27 14:17:15;;;;;;;33.03;19.08;;;;;;;;;;4967688;28;20197;-74
2021/12/27 14:19:43;;;;;;;34.90;19.27;;;;;;;;;;4999731;28;20045;-74
2021/12/27 14:22:24;;;;;;;30.77;18.67;;;;;;;;;;5012790;28;20387;-74
2021/12/27 14:24:58;;;;;;;35.70;20.08;;;;;;;;;;5012651;28;20063;-75
2021/12/27 14:27:27;;;;;;;34.47;19.33;;;;;;;;;;4993648;28;20077;-75
2021/12/27 14:30:13;;;;;;;34.60;20.10;;;;;;;;;;4982606;28;20060;-75